LiveATC.Net - Listen to live air traffic control over the Internet!


ICAO: KRST  IATA: RST   Airport: Rochester International Airport
City: Rochester   State/Province: Minnesota
Country: United States   Continent: North America
KRST METAR Weather: KRST 161354Z 23008KT 10SM OVC010 M08/M11 A3017 RMK AO2 SLP241 T10831111
KRST Flight Activity (FlightAware)
KRST Airport Info   (iFlightPlanner)
KRST VFR Sectional Chart   (iFlightPlanner) 
KRST IFR Low Chart   (iFlightPlanner) 

KRST Gnd/Twr/App
Feed Status: UP   Listeners: 0
Listen in your browser - HTML5 player (in browser, HTML5)
Click here to listen with your own player (launches your MP3 player)
Archive Access: KRST Gnd/Twr/App
FacilityFrequency
Rochester Approach119.200
Rochester Approach119.800
Rochester Ground121.900
Rochester Tower118.300

NOTICE

Unauthorized use prohibited. See LiveATC.net Terms of Service


Airport/ARTCC Code
Frequency Search
(e.g., 124.400, 128.75)
Site-wide search
 


Browse Feeds
Top 50 Feeds
Coverage Map
Bad Weather Areas

LiveATC FAQ
Offer LiveATC feed
Contact LiveATC.net
Press Inquiries

LiveATC on iPhone
LiveATC on Android

Windows Phone
Windows 8/10

LiveATC Mobile
(Mobile browser)

ATC Audio Archives
Interesting Recordings

LiveATC Forums


Home Page
About LiveATC.net
Make a Donation
Terms of Use
Privacy Policy

Canadian Air Freqs

AIRMETs/SIGMETs

FAA Airport Status
Nat'l Airspace Status
Arrival Demand Charts


Server Software By:
Icecast.org
Liquidsoap